createdAt,value
2023-04-24T00:00:46.088Z,3.23
2023-04-24T00:03:14.331Z,2.72
2023-04-24T00:05:41.344Z,3.72
2023-04-24T00:08:07.903Z,2.78
2023-04-24T00:10:34.529Z,3.40
2023-04-24T00:13:01.049Z,2.53
2023-04-24T00:15:27.587Z,4.38
2023-04-24T00:17:54.458Z,3.50
2023-04-24T00:20:22.198Z,2.35
2023-04-24T00:22:48.957Z,3.35
2023-04-24T00:25:15.618Z,4.40
2023-04-24T00:27:42.235Z,5.50
2023-04-24T00:30:09.265Z,3.78
2023-04-24T00:32:36.148Z,4.55
2023-04-24T00:35:03.051Z,4.70
2023-04-24T00:37:29.672Z,5.20
2023-04-24T00:39:56.833Z,4.63
2023-04-24T00:42:23.504Z,5.20
2023-04-24T00:44:50.282Z,5.53
2023-04-24T00:47:16.860Z,6.10
2023-04-24T00:49:43.678Z,7.50
2023-04-24T00:52:10.515Z,6.60
2023-04-24T00:54:37.243Z,4.65
2023-04-24T00:57:04.614Z,5.13
2023-04-24T00:59:31.606Z,5.32
2023-04-24T01:01:59.094Z,4.57
2023-04-24T01:04:25.925Z,4.18
2023-04-24T01:06:53.557Z,4.75
2023-04-24T01:09:22.208Z,5.97
2023-04-24T01:11:48.768Z,5.03
2023-04-24T01:14:15.411Z,6.33
2023-04-24T01:16:42.470Z,7.13
2023-04-24T01:19:11.549Z,5.15
2023-04-24T01:21:39.012Z,4.70
2023-04-24T01:24:06.380Z,5.30
2023-04-24T01:26:33.080Z,4.97
2023-04-24T01:28:59.648Z,4.70
2023-04-24T01:31:26.548Z,6.35
2023-04-24T01:33:53.589Z,6.30
2023-04-24T01:36:21.150Z,5.32
2023-04-24T01:38:47.647Z,5.27
2023-04-24T01:41:14.171Z,6.47
2023-04-24T01:43:41.272Z,4.72
2023-04-24T01:46:08.031Z,4.32
2023-04-24T01:48:36.679Z,4.40
2023-04-24T01:51:03.277Z,4.00
2023-04-24T01:53:30.472Z,4.05
2023-04-24T01:55:57.004Z,4.18
2023-04-24T01:58:25.744Z,5.38
2023-04-24T02:00:52.475Z,5.15
2023-04-24T02:03:19.313Z,5.20
2023-04-24T02:05:46.375Z,4.88
2023-04-24T02:08:12.884Z,5.35
2023-04-24T02:10:39.401Z,7.10
2023-04-24T02:13:05.875Z,5.00
2023-04-24T02:15:32.461Z,7.80
2023-04-24T02:17:59.012Z,6.35
2023-04-24T02:20:25.756Z,4.38
2023-04-24T02:22:53.406Z,5.40
2023-04-24T02:25:19.988Z,5.75
2023-04-24T02:27:46.726Z,4.80
2023-04-24T02:30:13.458Z,5.82
2023-04-24T02:32:40.031Z,5.63
2023-04-24T02:35:07.453Z,5.30
2023-04-24T02:37:34.199Z,6.43
2023-04-24T02:40:00.752Z,5.33
2023-04-24T02:42:27.400Z,5.72
2023-04-24T02:44:54.160Z,5.93
2023-04-24T02:47:20.741Z,6.90
2023-04-24T02:49:49.410Z,6.70
2023-04-24T02:52:16.389Z,6.10
2023-04-24T02:54:43.153Z,6.10
2023-04-24T02:57:09.659Z,6.07
2023-04-24T02:59:38.808Z,6.72
2023-04-24T03:02:05.360Z,5.75
2023-04-24T03:04:32.696Z,6.17
2023-04-24T03:06:59.839Z,6.53
2023-04-24T03:09:26.358Z,7.28
2023-04-24T03:11:53.687Z,6.55
2023-04-24T03:14:20.350Z,6.20
2023-04-24T03:16:46.910Z,8.33
2023-04-24T03:19:13.778Z,6.78
2023-04-24T03:21:54.485Z,7.30
2023-04-24T03:24:21.765Z,7.75
2023-04-24T03:26:48.882Z,6.90
2023-04-24T03:29:48.032Z,6.60
2023-04-24T03:32:16.084Z,5.95
2023-04-24T03:34:42.971Z,7.38
2023-04-24T03:37:11.782Z,6.63
2023-04-24T03:39:42.225Z,5.82
2023-04-24T03:42:09.558Z,4.40
2023-04-24T03:44:46.635Z,4.65
2023-04-24T03:47:13.169Z,4.43
2023-04-24T03:49:39.798Z,4.97
2023-04-24T03:52:06.395Z,7.32
2023-04-24T03:54:32.917Z,4.63
2023-04-24T03:57:00.273Z,4.20
2023-04-24T03:59:28.357Z,4.55
2023-04-24T04:02:17.825Z,6.28
2023-04-24T04:04:44.658Z,4.43
2023-04-24T04:07:12.254Z,4.00
2023-04-24T04:09:39.123Z,5.93
2023-04-24T04:12:05.680Z,6.03
2023-04-24T04:14:33.761Z,4.90
2023-04-24T04:17:00.295Z,4.43
2023-04-24T04:19:26.798Z,4.40
2023-04-24T04:21:54.458Z,4.53
2023-04-24T04:24:38.944Z,6.18
2023-04-24T04:27:06.399Z,6.60
2023-04-24T04:29:41.214Z,6.93
2023-04-24T04:32:10.664Z,6.67
2023-04-24T04:34:38.662Z,7.90
2023-04-24T04:37:06.895Z,7.57
2023-04-24T04:39:49.539Z,7.70
2023-04-24T04:42:22.829Z,7.63
2023-04-24T04:44:51.297Z,8.90
2023-04-24T04:47:25.982Z,8.07
2023-04-24T04:49:54.202Z,10.00
2023-04-24T04:52:26.231Z,8.98
2023-04-24T04:54:59.020Z,10.75
2023-04-24T04:57:35.643Z,9.30
2023-04-24T05:00:02.547Z,10.50
2023-04-24T05:02:41.582Z,11.30
2023-04-24T05:05:08.748Z,11.85
2023-04-24T05:07:35.872Z,13.48
2023-04-24T05:10:02.873Z,13.17
2023-04-24T05:12:30.567Z,14.10
2023-04-24T05:14:58.101Z,14.02
2023-04-24T05:17:25.817Z,11.75
2023-04-24T05:19:54.880Z,10.90
2023-04-24T05:22:22.179Z,7.93
2023-04-24T05:24:51.912Z,10.48
2023-04-24T05:27:32.750Z,10.77
2023-04-24T05:30:01.855Z,11.45
2023-04-24T05:32:29.371Z,11.35
2023-04-24T05:34:56.430Z,9.40
2023-04-24T05:37:23.040Z,8.15
2023-04-24T05:39:49.650Z,5.97
2023-04-24T05:42:16.261Z,5.60
2023-04-24T05:44:42.828Z,5.13
2023-04-24T05:47:09.352Z,5.10
2023-04-24T05:49:35.956Z,4.57
2023-04-24T05:52:05.076Z,5.00
2023-04-24T05:54:31.810Z,3.40
2023-04-24T05:56:58.371Z,4.55
2023-04-24T05:59:37.741Z,4.27
2023-04-24T06:02:04.598Z,5.85
2023-04-24T06:04:31.520Z,4.78
2023-04-24T06:06:59.514Z,8.27
2023-04-24T06:09:26.922Z,7.85
2023-04-24T06:11:54.398Z,8.87
2023-04-24T06:14:24.237Z,4.82
2023-04-24T06:17:10.738Z,4.82
2023-04-24T06:19:40.032Z,5.57
2023-04-24T06:22:08.515Z,4.07
2023-04-24T06:24:37.135Z,3.90
2023-04-24T06:27:03.960Z,4.95
2023-04-24T06:29:30.796Z,17.50
2023-04-24T06:31:57.581Z,6.38
2023-04-24T06:34:24.165Z,6.25
2023-04-24T06:36:50.741Z,3.30
2023-04-24T06:39:17.375Z,3.47
2023-04-24T06:41:43.936Z,5.88
2023-04-24T06:44:19.010Z,3.80
2023-04-24T06:46:45.703Z,4.18
2023-04-24T06:49:12.172Z,4.23
2023-04-24T06:51:38.730Z,4.97
2023-04-24T06:54:05.263Z,5.38
2023-04-24T06:56:31.939Z,4.05
2023-04-24T06:58:58.462Z,3.75
2023-04-24T07:01:25.013Z,4.47
2023-04-24T07:03:51.916Z,4.70
2023-04-24T07:06:19.728Z,5.18
2023-04-24T07:08:46.491Z,4.40
2023-04-24T07:11:13.042Z,5.05
2023-04-24T07:13:42.784Z,5.77
2023-04-24T07:16:09.756Z,4.72
2023-04-24T07:18:37.506Z,6.78
2023-04-24T07:21:04.085Z,5.45
2023-04-24T07:23:31.697Z,6.78
2023-04-24T07:25:58.572Z,5.63
2023-04-24T07:28:25.659Z,6.25
2023-04-24T07:30:54.843Z,5.70
2023-04-24T07:33:21.467Z,10.80
2023-04-24T07:35:48.074Z,4.30
2023-04-24T07:38:14.864Z,6.00
2023-04-24T07:40:41.367Z,6.22
2023-04-24T07:43:07.881Z,4.97
2023-04-24T07:45:37.996Z,5.15
2023-04-24T07:48:04.904Z,7.10
2023-04-24T07:50:31.473Z,6.07
2023-04-24T07:52:58.061Z,3.88
2023-04-24T07:55:27.284Z,4.82
2023-04-24T07:57:54.778Z,4.72
2023-04-24T08:00:21.894Z,6.15
2023-04-24T08:02:48.880Z,7.73
2023-04-24T08:05:15.859Z,5.55
2023-04-24T08:07:43.597Z,5.10
2023-04-24T08:10:13.427Z,4.78
2023-04-24T08:12:40.226Z,8.82
2023-04-24T08:15:07.294Z,6.53
2023-04-24T08:17:36.108Z,8.43
2023-04-24T08:20:06.108Z,9.43
2023-04-24T08:22:32.648Z,8.73
2023-04-24T08:25:01.025Z,11.45
2023-04-24T08:27:27.553Z,11.87
2023-04-24T08:29:55.066Z,12.32
2023-04-24T08:32:21.621Z,11.73
2023-04-24T08:34:49.687Z,12.57
2023-04-24T08:37:16.607Z,12.38
2023-04-24T08:39:43.354Z,12.37
2023-04-24T08:42:12.193Z,14.02
2023-04-24T08:44:38.899Z,16.13
2023-04-24T08:47:06.283Z,12.05
2023-04-24T08:49:33.468Z,17.08
2023-04-24T08:52:00.885Z,14.40
2023-04-24T08:54:27.767Z,17.45
2023-04-24T08:56:56.432Z,16.13
2023-04-24T08:59:23.552Z,16.63
2023-04-24T09:01:51.841Z,15.93
2023-04-24T09:04:21.216Z,15.37
2023-04-24T09:06:49.934Z,13.15
2023-04-24T09:09:17.815Z,15.55
2023-04-24T09:11:44.380Z,12.80
2023-04-24T09:14:11.872Z,13.45
2023-04-24T09:16:38.524Z,12.90
2023-04-24T09:19:05.171Z,13.65
2023-04-24T09:21:36.454Z,12.15
2023-04-24T09:24:08.301Z,12.38
2023-04-24T09:26:38.095Z,15.35
2023-04-24T09:29:05.290Z,13.30
2023-04-24T09:31:31.953Z,15.35
2023-04-24T09:34:02.332Z,11.20
2023-04-24T09:36:35.408Z,12.98
2023-04-24T09:39:02.957Z,14.00
2023-04-24T09:41:32.569Z,14.33
2023-04-24T09:44:12.156Z,20.42
2023-04-24T09:46:38.722Z,17.80
2023-04-24T09:49:14.639Z,13.02
2023-04-24T09:51:41.537Z,10.00
2023-04-24T09:54:16.792Z,12.97
2023-04-24T09:56:45.624Z,11.23
2023-04-24T09:59:19.453Z,7.88
2023-04-24T10:01:46.551Z,11.05
2023-04-24T10:04:25.190Z,9.25
2023-04-24T10:06:54.169Z,9.60
2023-04-24T10:09:22.722Z,9.30
2023-04-24T10:11:51.927Z,10.45
2023-04-24T10:14:21.593Z,8.38
2023-04-24T10:16:48.719Z,10.85
2023-04-24T10:19:16.946Z,12.03
2023-04-24T10:21:47.284Z,13.80
2023-04-24T10:24:16.252Z,10.32
2023-04-24T10:26:44.202Z,20.10
2023-04-24T10:29:13.531Z,13.80
2023-04-24T10:31:40.985Z,12.20
2023-04-24T10:34:08.017Z,16.50
2023-04-24T10:36:36.363Z,16.45
2023-04-24T10:39:06.737Z,11.95
2023-04-24T10:41:33.399Z,13.70
2023-04-24T10:44:11.267Z,8.67
2023-04-24T10:46:39.489Z,12.50
2023-04-24T10:49:12.411Z,11.65
2023-04-24T10:52:03.330Z,13.45
2023-04-24T10:57:19.119Z,11.67
2023-04-24T10:59:46.785Z,11.25
2023-04-24T11:02:16.412Z,9.95
2023-04-24T11:04:47.196Z,8.88
2023-04-24T11:07:13.987Z,7.90
2023-04-24T11:09:44.246Z,7.50
2023-04-24T11:12:12.588Z,6.20
2023-04-24T11:14:58.058Z,6.07
2023-04-24T11:17:34.354Z,6.03
2023-04-24T11:20:26.136Z,8.30
2023-04-24T11:22:55.890Z,5.50
2023-04-24T11:25:23.743Z,7.82
2023-04-24T11:27:51.170Z,10.35
2023-04-24T11:30:21.542Z,6.13
2023-04-24T11:32:54.330Z,9.80
2023-04-24T11:35:26.032Z,7.70
2023-04-24T11:40:24.326Z,12.07
2023-04-24T11:42:52.299Z,10.20
2023-04-24T11:45:27.907Z,9.82
2023-04-24T11:47:55.004Z,8.30
2023-04-24T11:50:24.662Z,5.28
2023-04-24T11:52:51.667Z,7.72
2023-04-24T11:55:18.527Z,6.60
2023-04-24T11:57:50.245Z,10.77
2023-04-24T12:00:28.285Z,6.40
2023-04-24T12:03:06.984Z,6.97
2023-04-24T12:05:34.484Z,9.55
2023-04-24T12:08:01.332Z,5.47
2023-04-24T12:10:30.877Z,7.32
2023-04-24T12:12:58.904Z,7.27
2023-04-24T12:15:25.773Z,5.90
2023-04-24T12:17:53.649Z,3.90
2023-04-24T12:20:28.932Z,4.38
2023-04-24T12:22:57.671Z,5.90
2023-04-24T12:25:26.479Z,6.03
2023-04-24T12:27:55.752Z,6.10
2023-04-24T12:30:27.047Z,5.03
2023-04-24T12:32:55.923Z,2.83
2023-04-24T12:35:24.317Z,4.70
2023-04-24T12:37:51.391Z,3.53
2023-04-24T12:40:19.035Z,3.13
2023-04-24T12:42:52.557Z,3.10
2023-04-24T12:45:20.038Z,2.78
2023-04-24T12:47:47.113Z,3.97
2023-04-24T12:50:16.092Z,3.90
2023-04-24T12:52:43.526Z,4.20
2023-04-24T12:55:10.362Z,2.38
2023-04-24T12:57:38.479Z,4.03
2023-04-24T13:00:06.926Z,5.60
2023-04-24T13:02:34.882Z,4.87
2023-04-24T13:05:02.223Z,2.88
2023-04-24T13:07:28.936Z,4.22
2023-04-24T13:09:56.598Z,4.72
2023-04-24T13:12:24.974Z,3.28
2023-04-24T13:14:51.660Z,3.27
2023-04-24T13:17:18.201Z,3.45
2023-04-24T13:19:45.737Z,3.42
2023-04-24T13:22:13.348Z,2.75
2023-04-24T13:24:43.203Z,3.97
2023-04-24T13:27:10.330Z,3.00
2023-04-24T13:29:37.556Z,5.82
2023-04-24T13:32:04.434Z,4.43
2023-04-24T13:34:31.029Z,4.53
2023-04-24T13:36:59.431Z,3.88
2023-04-24T13:39:27.004Z,3.20
2023-04-24T13:41:54.191Z,4.35
2023-04-24T13:44:22.322Z,5.43
2023-04-24T13:46:50.825Z,4.38
2023-04-24T13:49:17.436Z,3.83
2023-04-24T13:51:47.374Z,2.90
2023-04-24T13:54:14.563Z,6.65
2023-04-24T13:56:41.592Z,4.72
2023-04-24T13:59:08.261Z,5.80
2023-04-24T14:01:34.922Z,3.40
2023-04-24T14:04:01.641Z,6.53
2023-04-24T14:06:28.262Z,6.68
2023-04-24T14:08:54.798Z,6.50
2023-04-24T14:11:21.467Z,7.57
2023-04-24T14:13:48.025Z,8.88
2023-04-24T14:16:15.668Z,10.30
2023-04-24T14:18:42.336Z,7.90
2023-04-24T14:21:08.890Z,7.63
2023-04-24T14:23:35.435Z,10.32
2023-04-24T14:26:02.035Z,9.13
2023-04-24T14:28:29.165Z,7.80
2023-04-24T14:30:55.855Z,10.25
2023-04-24T14:33:22.530Z,7.88
2023-04-24T14:35:49.071Z,8.13
2023-04-24T14:38:16.321Z,11.32
2023-04-24T14:41:02.667Z,7.80
2023-04-24T14:43:29.452Z,9.77
2023-04-24T14:45:56.175Z,12.15
2023-04-24T14:48:22.754Z,14.15
2023-04-24T14:50:49.386Z,6.85
2023-04-24T14:53:15.927Z,9.30
2023-04-24T14:55:42.440Z,9.85
2023-04-24T14:58:09.044Z,7.00
2023-04-24T15:00:35.761Z,10.45
2023-04-24T15:03:02.692Z,12.40
2023-04-24T15:05:29.867Z,9.10
2023-04-24T15:07:56.574Z,9.32
2023-04-24T15:10:25.023Z,7.55
2023-04-24T15:12:51.559Z,7.00
2023-04-24T15:15:18.067Z,6.40
2023-04-24T15:17:44.919Z,8.87
2023-04-24T15:20:11.717Z,5.05
2023-04-24T15:22:38.306Z,4.90
2023-04-24T15:25:06.679Z,7.68
2023-04-24T15:27:46.662Z,7.97
2023-04-24T15:30:13.828Z,6.23
2023-04-24T15:32:40.656Z,7.53
2023-04-24T15:35:10.219Z,9.10
2023-04-24T15:37:38.157Z,6.20
2023-04-24T15:40:06.652Z,8.57
2023-04-24T15:42:33.284Z,5.40
2023-04-24T15:44:59.929Z,7.93
2023-04-24T15:47:27.010Z,5.90
2023-04-24T15:49:54.253Z,10.43
2023-04-24T15:52:20.910Z,6.07
2023-04-24T15:54:47.525Z,8.80
2023-04-24T15:57:14.158Z,6.72
2023-04-24T15:59:40.902Z,8.48
2023-04-24T16:02:10.439Z,7.68
2023-04-24T16:04:37.405Z,7.85
2023-04-24T16:07:04.075Z,12.30
2023-04-24T16:09:30.690Z,5.80
2023-04-24T16:11:57.849Z,7.88
2023-04-24T16:14:25.826Z,10.05
2023-04-24T16:16:52.360Z,6.90
2023-04-24T16:19:18.939Z,9.57
2023-04-24T16:21:45.637Z,8.32
2023-04-24T16:24:12.165Z,10.55
2023-04-24T16:26:39.453Z,8.77
2023-04-24T16:29:06.010Z,11.50
2023-04-24T16:31:33.728Z,9.00
2023-04-24T16:34:00.324Z,9.90
2023-04-24T16:36:26.979Z,9.38
2023-04-24T16:38:53.531Z,9.30
2023-04-24T16:41:20.060Z,9.95
2023-04-24T16:43:46.592Z,9.37
2023-04-24T16:46:13.223Z,11.02
2023-04-24T16:48:39.850Z,12.00
2023-04-24T16:51:06.375Z,11.57
2023-04-24T16:53:32.958Z,10.65
2023-04-24T16:55:59.540Z,12.90
2023-04-24T16:58:26.062Z,10.35
2023-04-24T17:00:52.711Z,12.25
2023-04-24T17:03:19.448Z,9.80
2023-04-24T17:05:46.251Z,11.75
2023-04-24T17:08:13.362Z,8.77
2023-04-24T17:10:41.150Z,9.70
2023-04-24T17:13:08.095Z,11.35
2023-04-24T17:15:36.187Z,7.60
2023-04-24T17:18:03.147Z,10.30
2023-04-24T17:20:30.287Z,9.50
2023-04-24T17:22:56.974Z,5.88
2023-04-24T17:25:24.269Z,7.25
2023-04-24T17:27:50.983Z,8.68
2023-04-24T17:30:18.046Z,9.02
2023-04-24T17:32:44.887Z,11.57
2023-04-24T17:35:11.783Z,5.95
2023-04-24T17:37:38.548Z,9.68
2023-04-24T17:40:05.725Z,7.30
2023-04-24T17:42:32.254Z,6.82
2023-04-24T17:44:58.836Z,9.17
2023-04-24T17:47:27.300Z,12.52
2023-04-24T17:49:53.944Z,7.72
2023-04-24T17:52:20.676Z,7.45
2023-04-24T17:54:49.604Z,13.77
2023-04-24T17:57:16.302Z,5.83
2023-04-24T17:59:42.799Z,9.68
2023-04-24T18:02:09.369Z,12.20
2023-04-24T18:04:36.283Z,8.38
2023-04-24T18:07:02.971Z,11.57
2023-04-24T18:09:29.521Z,11.07
2023-04-24T18:11:57.107Z,10.05
2023-04-24T18:14:25.692Z,6.75
2023-04-24T18:16:52.229Z,12.65
2023-04-24T18:19:18.790Z,9.43
2023-04-24T18:21:45.310Z,17.97
2023-04-24T18:24:11.812Z,10.82
2023-04-24T18:26:38.305Z,12.00
2023-04-24T18:29:04.879Z,10.95
2023-04-24T18:31:32.659Z,11.63
2023-04-24T18:33:59.343Z,10.13
2023-04-24T18:36:25.857Z,15.40
2023-04-24T18:38:52.428Z,14.90
2023-04-24T18:41:18.959Z,11.90
2023-04-24T18:43:45.603Z,10.23
2023-04-24T18:46:12.208Z,11.67
2023-04-24T18:48:38.716Z,13.98
2023-04-24T18:51:05.404Z,11.38
2023-04-24T18:53:31.885Z,9.55
2023-04-24T18:55:58.389Z,10.48
2023-04-24T18:58:24.975Z,11.33
2023-04-24T19:00:51.645Z,12.55
2023-04-24T19:03:18.383Z,9.68
2023-04-24T19:05:45.044Z,8.40
2023-04-24T19:08:11.831Z,9.98
2023-04-24T19:10:38.368Z,10.23
2023-04-24T19:13:06.299Z,11.68
2023-04-24T19:15:33.672Z,8.98
2023-04-24T19:18:00.547Z,9.05
2023-04-24T19:20:27.238Z,10.77
2023-04-24T19:22:53.869Z,12.17
2023-04-24T19:25:20.450Z,11.63
2023-04-24T19:27:47.009Z,12.13
2023-04-24T19:30:13.611Z,10.45
2023-04-24T19:32:40.286Z,11.27
2023-04-24T19:35:07.385Z,10.73
2023-04-24T19:37:35.280Z,12.23
2023-04-24T19:40:01.829Z,14.35
2023-04-24T19:42:39.847Z,11.77
2023-04-24T19:45:09.839Z,14.98
2023-04-24T19:47:36.414Z,12.33
2023-04-24T19:50:03.098Z,14.13
2023-04-24T19:52:29.636Z,19.33
2023-04-24T19:54:56.213Z,10.30
2023-04-24T19:57:22.840Z,12.40
2023-04-24T19:59:49.328Z,13.87
2023-04-24T20:02:15.879Z,13.25
2023-04-24T20:04:42.915Z,9.63
2023-04-24T20:07:09.536Z,11.45
2023-04-24T20:09:36.008Z,12.73
2023-04-24T20:12:02.780Z,12.93
2023-04-24T20:14:29.272Z,8.65
2023-04-24T20:16:55.898Z,11.25
2023-04-24T20:19:22.658Z,19.42
2023-04-24T20:21:49.537Z,13.23
2023-04-24T20:24:16.288Z,10.00
2023-04-24T20:26:43.113Z,8.55
2023-04-24T20:29:10.582Z,9.82
2023-04-24T20:31:37.509Z,11.30
2023-04-24T20:34:04.285Z,11.55
2023-04-24T20:36:30.847Z,9.23
2023-04-24T20:38:58.233Z,11.50
2023-04-24T20:41:24.837Z,8.70
2023-04-24T20:43:52.253Z,10.23
2023-04-24T20:46:18.857Z,8.88
2023-04-24T20:48:45.335Z,11.77
2023-04-24T20:51:12.432Z,9.85
2023-04-24T20:53:39.280Z,10.73
2023-04-24T20:56:06.038Z,11.85
2023-04-24T20:58:32.525Z,9.43
2023-04-24T21:00:59.090Z,12.27
2023-04-24T21:03:25.860Z,11.25
2023-04-24T21:05:52.438Z,9.65
2023-04-24T21:08:19.184Z,10.80
2023-04-24T21:10:45.718Z,7.97
2023-04-24T21:13:12.186Z,8.53
2023-04-24T21:15:38.745Z,13.68
2023-04-24T21:18:05.433Z,7.70
2023-04-24T21:20:32.100Z,6.93
2023-04-24T21:22:58.693Z,8.15
2023-04-24T21:25:25.274Z,8.37
2023-04-24T21:27:51.794Z,6.03
2023-04-24T21:30:19.007Z,7.65
2023-04-24T21:32:45.579Z,7.57
2023-04-24T21:35:12.178Z,6.75
2023-04-24T21:37:39.794Z,11.47
2023-04-24T21:40:07.691Z,8.23
2023-04-24T21:42:34.191Z,11.93
2023-04-24T21:45:00.678Z,7.80
2023-04-24T21:47:27.194Z,7.70
2023-04-24T21:49:53.714Z,9.13
2023-04-24T21:52:20.248Z,10.65
2023-04-24T21:54:46.793Z,9.38
2023-04-24T21:57:13.320Z,9.70
2023-04-24T21:59:39.858Z,10.38
2023-04-24T22:02:06.419Z,6.70
2023-04-24T22:04:33.296Z,12.45
2023-04-24T22:06:59.854Z,9.13
2023-04-24T22:09:26.433Z,7.78
2023-04-24T22:11:52.986Z,7.18
2023-04-24T22:14:19.560Z,11.30
2023-04-24T22:16:47.748Z,8.07
2023-04-24T22:19:14.485Z,8.93
2023-04-24T22:21:41.532Z,7.47
2023-04-24T22:24:08.920Z,6.47
2023-04-24T22:26:35.779Z,11.20
2023-04-24T22:29:02.314Z,4.97
2023-04-24T22:31:28.865Z,8.77
2023-04-24T22:33:55.827Z,8.05
2023-04-24T22:36:22.292Z,7.97
2023-04-24T22:38:48.798Z,10.70
2023-04-24T22:41:15.370Z,12.40
2023-04-24T22:43:41.872Z,9.90
2023-04-24T22:46:08.688Z,9.43
2023-04-24T22:48:35.310Z,12.25
2023-04-24T22:51:02.505Z,11.27
2023-04-24T22:53:29.054Z,8.18
2023-04-24T22:55:56.450Z,9.25
2023-04-24T22:58:22.970Z,11.70
2023-04-24T23:00:49.604Z,16.75
2023-04-24T23:03:16.272Z,8.33
2023-04-24T23:05:42.941Z,19.95
2023-04-24T23:08:09.441Z,10.13
2023-04-24T23:10:35.930Z,13.57
2023-04-24T23:13:02.452Z,10.10
2023-04-24T23:15:29.010Z,9.47
2023-04-24T23:17:55.725Z,15.52
2023-04-24T23:20:22.348Z,15.57
2023-04-24T23:22:48.883Z,9.90
2023-04-24T23:25:15.818Z,15.70
2023-04-24T23:27:42.553Z,14.17
2023-04-24T23:30:09.388Z,13.52
2023-04-24T23:32:36.049Z,12.50
2023-04-24T23:35:02.617Z,17.13
2023-04-24T23:37:29.240Z,10.25
2023-04-24T23:39:55.833Z,13.67
2023-04-24T23:42:22.393Z,13.90
2023-04-24T23:44:48.865Z,15.48
2023-04-24T23:47:15.505Z,12.90
2023-04-24T23:49:42.051Z,13.68
2023-04-24T23:52:08.566Z,13.63
2023-04-24T23:54:35.150Z,20.88
2023-04-24T23:57:02.423Z,14.52
2023-04-24T23:59:29.287Z,17.15
